Time;durP1;ratioP1;P1;durP2;ratioP2;P2;SDS_P1;SDS_P2;PMS_P1;PMS_P2;Temp;Humidity;BMP_temperature;BMP_pressure;BME280_temperature;BME280_humidity;BME280_pressure;Samples;Min_cycle;Max_cycle;Signal;HPM_P1;HPM_P2
2022/03/31 00:00:57;;;;;;;0.60;0.60;;;;;;;17.42;41.22;100274.72;5125649;28;20034;-58
2022/03/31 00:03:23;;;;;;;1.13;0.70;;;;;;;17.42;41.16;100284.63;5125011;28;20033;-58
2022/03/31 00:05:50;;;;;;;0.70;0.70;;;;;;;17.41;41.02;100282.94;5125490;28;20057;-57
2022/03/31 00:08:18;;;;;;;0.80;0.80;;;;;;;17.40;41.08;100282.09;5124420;28;20024;-57
2022/03/31 00:10:52;;;;;;;0.70;0.70;;;;;;;17.40;40.94;100276.72;5125550;28;20027;-58
2022/03/31 00:13:28;;;;;;;1.10;0.82;;;;;;;17.39;41.03;100268.84;5125580;28;20042;-57
2022/03/31 00:15:56;;;;;;;1.45;0.82;;;;;;;17.38;40.97;100267.19;5124802;28;20042;-57
2022/03/31 00:18:21;;;;;;;0.70;0.70;;;;;;;17.37;41.10;100265.50;5124888;28;20114;-57
2022/03/31 00:24:08;;;;;;;0.98;0.88;;;;;;;17.34;40.98;100264.00;5124870;28;20047;-59
2022/03/31 00:26:34;;;;;;;2.55;1.05;;;;;;;17.34;41.03;100260.47;5125481;28;20031;-59
2022/03/31 00:28:59;;;;;;;0.82;0.80;;;;;;;17.34;40.96;100263.16;5125154;28;20058;-59
2022/03/31 00:31:24;;;;;;;0.93;0.77;;;;;;;17.30;41.05;100254.63;5125337;28;20110;-59
2022/03/31 00:33:50;;;;;;;0.80;0.80;;;;;;;17.32;41.05;100246.38;5124512;28;20053;-59
2022/03/31 00:36:15;;;;;;;1.48;0.82;;;;;;;17.31;41.02;100250.91;5124661;28;20643;-59
2022/03/31 00:39:28;;;;;;;1.00;0.90;;;;;;;17.30;40.99;100246.56;5124809;28;20057;-59
2022/03/31 00:41:27;;;;;;;1.17;0.80;;;;;;;17.30;41.01;100241.19;5124932;28;20019;-59
2022/03/31 00:43:54;;;;;;;0.88;0.75;;;;;;;17.26;40.84;100236.34;5124773;28;20019;-59
2022/03/31 00:46:22;;;;;;;0.80;0.80;;;;;;;17.30;41.00;100246.56;5124787;28;20025;-59
2022/03/31 00:48:48;;;;;;;1.17;1.03;;;;;;;17.26;40.89;100234.47;5124265;28;20028;-59
2022/03/31 00:51:14;;;;;;;0.60;0.60;;;;;;;17.24;40.85;100228.44;5124679;28;20279;-59
2022/03/31 00:53:39;;;;;;;1.20;0.70;;;;;;;17.26;41.00;100239.84;5124439;28;20027;-59
2022/03/31 00:56:06;;;;;;;0.73;0.73;;;;;;;17.26;40.96;100236.34;5123647;28;20019;-59
2022/03/31 00:58:32;;;;;;;0.80;0.80;;;;;;;17.22;40.86;100235.84;5124643;28;20046;-59
2022/03/31 01:00:57;;;;;;;0.73;0.73;;;;;;;17.24;40.95;100233.81;5123579;28;20027;-58
2022/03/31 01:03:22;;;;;;;0.80;0.80;;;;;;;17.23;40.88;100234.81;5123891;28;20026;-58
2022/03/31 01:05:48;;;;;;;1.23;0.90;;;;;;;17.23;40.90;100232.97;5124507;28;20519;-59
2022/03/31 01:08:13;;;;;;;0.70;0.70;;;;;;;17.23;40.78;100237.50;5124000;28;20034;-59
2022/03/31 01:10:39;;;;;;;0.80;0.80;;;;;;;17.21;40.77;100226.94;5124398;28;20057;-59
2022/03/31 01:13:06;;;;;;;0.82;0.63;;;;;;;17.20;40.91;100219.91;5124404;28;20160;-59
2022/03/31 01:15:31;;;;;;;0.93;0.85;;;;;;;17.20;40.77;100230.66;5124344;28;20020;-59
2022/03/31 01:17:56;;;;;;;0.70;0.70;;;;;;;17.20;40.94;100213.66;5124233;28;20023;-58
2022/03/31 01:20:22;;;;;;;0.90;0.90;;;;;;;17.18;40.79;100221.91;5123500;28;20023;-60
2022/03/31 01:22:50;;;;;;;0.80;0.70;;;;;;;17.17;40.91;100212.19;5124202;28;20019;-58
2022/03/31 01:25:15;;;;;;;1.67;1.27;;;;;;;17.17;40.89;100219.41;5124150;28;20031;-59
2022/03/31 01:27:43;;;;;;;1.23;0.75;;;;;;;17.16;40.89;100209.66;5124392;28;20057;-59
2022/03/31 01:30:13;;;;;;;0.70;0.70;;;;;;;17.16;40.83;100210.53;5123026;28;20042;-59
2022/03/31 01:32:39;;;;;;;0.82;0.82;;;;;;;17.15;40.90;100211.50;5124228;28;20499;-58
2022/03/31 01:35:06;;;;;;;0.80;0.80;;;;;;;17.15;40.73;100210.66;5123239;28;20024;-59
2022/03/31 01:37:31;;;;;;;0.80;0.80;;;;;;;17.12;40.83;100198.44;5124080;27;20103;-59
2022/03/31 01:39:57;;;;;;;0.70;0.70;;;;;;;17.13;40.83;100199.28;5123901;28;20022;-59
2022/03/31 01:42:22;;;;;;;0.80;0.70;;;;;;;17.10;40.72;100189.72;5124222;28;20491;-59
2022/03/31 01:44:49;;;;;;;2.47;1.00;;;;;;;17.11;40.77;100198.59;5123850;28;20027;-59
2022/03/31 01:47:15;;;;;;;0.70;0.70;;;;;;;17.10;40.77;100195.09;5123079;28;20037;-59
2022/03/31 01:49:40;;;;;;;0.77;0.77;;;;;;;17.09;40.56;100190.72;5123091;28;20115;-58
2022/03/31 01:52:06;;;;;;;0.80;0.80;;;;;;;17.09;40.79;100195.25;5124154;28;20028;-59
2022/03/31 01:54:34;;;;;;;1.02;0.88;;;;;;;17.08;40.87;100193.59;5123447;28;20023;-58
2022/03/31 01:56:59;;;;;;;0.98;0.80;;;;;;;17.07;40.82;100189.22;5122794;28;20035;-59
2022/03/31 01:59:32;;;;;;;1.05;0.80;;;;;;;17.07;40.61;100195.41;5123863;28;20028;-59
2022/03/31 02:01:58;;;;;;;1.23;1.13;;;;;;;17.05;40.75;100192.09;5124315;28;20015;-59
2022/03/31 02:04:23;;;;;;;0.77;0.77;;;;;;;17.06;40.81;100190.22;5123296;28;20134;-59
2022/03/31 02:06:48;;;;;;;0.70;0.70;;;;;;;17.04;40.66;100187.72;5122120;28;20035;-59
2022/03/31 02:09:14;;;;;;;1.45;0.95;;;;;;;17.03;40.69;100183.34;5123693;28;20038;-59
2022/03/31 02:11:40;;;;;;;1.33;0.80;;;;;;;17.03;40.64;100186.03;5123713;28;20019;-59
2022/03/31 02:14:05;;;;;;;0.80;0.70;;;;;;;17.01;40.71;100176.50;5122306;28;20454;-59
2022/03/31 02:16:31;;;;;;;0.80;0.80;;;;;;;17.02;40.71;100181.69;5123568;28;20026;-58
2022/03/31 02:18:56;;;;;;;0.60;0.60;;;;;;;17.01;40.81;100179.19;5117433;28;20505;-59
2022/03/31 02:21:21;;;;;;;0.80;0.80;;;;;;;17.01;40.79;100173.81;5127701;28;20046;-59
2022/03/31 02:23:47;;;;;;;0.80;0.80;;;;;;;16.99;40.63;100172.16;5127391;28;20050;-59
2022/03/31 02:26:12;;;;;;;0.73;0.70;;;;;;;16.99;40.59;100160.53;5127624;28;20024;-58
2022/03/31 02:28:39;;;;;;;0.70;0.70;;;;;;;16.97;40.65;100155.34;5127387;28;20019;-59
2022/03/31 02:31:04;;;;;;;0.70;0.70;;;;;;;16.97;40.67;100157.19;5127739;28;20042;-59
2022/03/31 02:33:29;;;;;;;0.80;0.80;;;;;;;16.95;40.77;100154.69;5126599;28;20028;-59
2022/03/31 02:35:55;;;;;;;0.80;0.80;;;;;;;16.96;40.66;100153.69;5127198;28;20051;-59
2022/03/31 02:38:21;;;;;;;0.80;0.70;;;;;;;16.95;41.17;100143.97;5127040;28;20048;-58
2022/03/31 02:40:46;;;;;;;0.70;0.70;;;;;;;16.94;40.80;100147.63;5127501;28;20035;-58
2022/03/31 02:43:12;;;;;;;0.70;0.70;;;;;;;16.95;40.71;100153.88;5127586;28;20024;-58
2022/03/31 02:45:37;;;;;;;0.93;0.70;;;;;;;16.95;40.58;100146.66;5127090;28;20027;-59
2022/03/31 02:48:03;;;;;;;0.70;0.70;;;;;;;16.93;40.69;100142.44;5127083;28;20050;-58
2022/03/31 02:50:28;;;;;;;0.70;0.70;;;;;;;16.92;40.72;100140.78;5126450;28;20032;-59
2022/03/31 02:55:38;;;;;;;0.95;0.90;;;;;;;16.90;40.68;100135.56;5127167;28;20034;-59
2022/03/31 02:58:04;;;;;;;0.70;0.70;;;;;;;16.90;40.70;100132.06;5126755;28;20039;-59
2022/03/31 03:00:32;;;;;;;0.80;0.80;;;;;;;16.90;40.70;100132.88;5127199;28;20032;-59
2022/03/31 03:02:58;;;;;;;0.70;0.70;;;;;;;16.89;40.69;100130.38;5127102;28;20073;-59
2022/03/31 03:05:23;;;;;;;0.82;0.82;;;;;;;16.90;40.74;100129.38;5124697;28;20034;-58
2022/03/31 03:07:49;;;;;;;0.70;0.70;;;;;;;16.88;40.71;100128.72;5126945;28;20051;-58
2022/03/31 03:10:14;;;;;;;0.93;0.75;;;;;;;16.87;40.72;100135.94;5126875;28;20024;-58
2022/03/31 03:12:41;;;;;;;1.27;0.70;;;;;;;16.84;40.82;100133.59;5126852;28;20099;-58
2022/03/31 03:15:07;;;;;;;0.80;0.80;;;;;;;16.86;40.57;100130.72;5125272;28;20087;-57
2022/03/31 03:17:33;;;;;;;0.70;0.70;;;;;;;16.86;40.50;100128.03;5126728;28;20030;-59
2022/03/31 03:19:58;;;;;;;0.68;0.68;;;;;;;16.85;40.73;100123.69;5125451;28;20031;-59
2022/03/31 03:22:23;;;;;;;0.70;0.70;;;;;;;16.84;40.61;100116.66;5126501;28;20046;-59
2022/03/31 03:24:48;;;;;;;0.73;0.70;;;;;;;16.84;40.69;100111.28;5126411;28;20027;-59
2022/03/31 03:27:14;;;;;;;0.75;0.75;;;;;;;16.83;40.71;100114.97;5126649;28;20028;-59
2022/03/31 03:29:46;;;;;;;0.60;0.60;;;;;;;16.83;40.60;100117.66;5126006;28;20087;-59
2022/03/31 03:32:12;;;;;;;0.60;0.60;;;;;;;16.82;40.65;100121.34;5125287;28;20026;-59
2022/03/31 03:34:37;;;;;;;0.70;0.70;;;;;;;16.82;40.68;100119.53;5125563;27;20019;-59
2022/03/31 03:37:03;;;;;;;0.73;0.73;;;;;;;16.82;40.55;100118.66;5125485;28;20047;-59
2022/03/31 03:39:28;;;;;;;0.60;0.60;;;;;;;16.81;40.53;100119.69;5126166;28;20028;-59
2022/03/31 03:41:53;;;;;;;1.00;1.00;;;;;;;16.82;40.63;100113.28;5126126;28;20036;-59
2022/03/31 03:44:18;;;;;;;1.05;0.80;;;;;;;16.79;40.68;100116.34;5126016;28;20031;-59
2022/03/31 03:46:43;;;;;;;0.75;0.75;;;;;;;16.80;40.66;100102.72;5110761;28;20053;-59
2022/03/31 03:49:09;;;;;;;0.90;0.90;;;;;;;16.80;40.62;100100.06;5104939;28;20090;-59
2022/03/31 03:51:34;;;;;;;0.70;0.70;;;;;;;16.79;40.56;100093.00;5105234;28;20048;-59
2022/03/31 03:53:59;;;;;;;0.70;0.70;;;;;;;16.80;40.56;100091.16;5124425;28;20061;-59
2022/03/31 03:56:24;;;;;;;0.75;0.75;;;;;;;16.81;40.54;100095.50;5125793;28;20039;-59
2022/03/31 03:58:49;;;;;;;0.77;0.77;;;;;;;16.80;40.47;100109.97;5125590;28;20030;-59
2022/03/31 04:01:15;;;;;;;0.82;0.82;;;;;;;16.81;40.45;100103.56;5126041;28;20079;-59
2022/03/31 04:03:40;;;;;;;0.70;0.70;;;;;;;16.82;40.45;100113.28;5124774;28;20039;-59
2022/03/31 04:06:05;;;;;;;0.65;0.65;;;;;;;16.81;40.39;100107.09;5125537;28;20038;-59
2022/03/31 04:08:30;;;;;;;0.70;0.70;;;;;;;16.82;40.50;100115.97;5125460;28;20440;-59
2022/03/31 04:10:56;;;;;;;0.77;0.77;;;;;;;16.82;40.33;100107.91;5125587;28;20122;-59
2022/03/31 04:13:21;;;;;;;0.70;0.70;;;;;;;16.77;40.42;100107.59;5125663;28;20138;-59
2022/03/31 04:15:46;;;;;;;0.70;0.70;;;;;;;16.83;40.32;100109.63;5125361;28;20027;-59
2022/03/31 04:18:12;;;;;;;0.70;0.70;;;;;;;16.80;40.35;100110.78;5125133;28;20019;-59
2022/03/31 04:20:37;;;;;;;0.70;0.70;;;;;;;16.85;40.36;100107.56;5124776;28;20522;-59
2022/03/31 04:23:03;;;;;;;0.73;0.73;;;;;;;16.84;40.27;100103.22;5125573;28;20039;-59
2022/03/31 04:25:28;;;;;;;0.70;0.70;;;;;;;16.86;40.12;100106.56;5125558;28;20030;-59
2022/03/31 04:27:53;;;;;;;0.90;0.90;;;;;;;16.86;40.09;100099.34;5125294;28;20030;-59
2022/03/31 04:30:21;;;;;;;0.70;0.70;;;;;;;16.86;40.08;100093.97;5125313;28;20451;-59
2022/03/31 04:32:47;;;;;;;0.70;0.70;;;;;;;16.87;40.08;100090.28;5125165;28;20023;-59
2022/03/31 04:35:12;;;;;;;0.70;0.70;;;;;;;16.89;40.02;100092.78;5124047;27;20031;-57
2022/03/31 04:37:37;;;;;;;0.90;0.90;;;;;;;16.89;40.08;100077.53;5124992;28;20036;-58
2022/03/31 04:40:04;;;;;;;0.75;0.73;;;;;;;16.91;40.09;100085.41;5124888;28;20031;-58
2022/03/31 04:42:30;;;;;;;0.60;0.60;;;;;;;16.91;39.98;100094.31;5124445;28;20049;-58
2022/03/31 04:44:55;;;;;;;0.60;0.60;;;;;;;16.92;39.90;100093.28;5124027;28;20031;-59
2022/03/31 04:47:20;;;;;;;0.80;0.80;;;;;;;16.92;39.94;100090.59;5124904;28;20083;-58
2022/03/31 04:49:46;;;;;;;0.65;0.65;;;;;;;16.93;40.22;100092.25;5124104;28;20475;-58
2022/03/31 04:52:11;;;;;;;0.70;0.70;;;;;;;16.94;39.80;100093.09;5125078;28;20492;-58
2022/03/31 04:54:43;;;;;;;0.70;0.70;;;;;;;16.96;39.74;100096.47;5124899;28;20020;-58
2022/03/31 04:57:10;;;;;;;0.70;0.70;;;;;;;16.96;39.69;100094.59;5124851;28;20482;-58
2022/03/31 04:59:35;;;;;;;0.60;0.60;;;;;;;16.96;39.78;100096.47;5124710;28;20028;-57
2022/03/31 05:02:00;;;;;;;0.85;0.85;;;;;;;16.97;39.88;100096.28;5124773;28;20027;-54
2022/03/31 05:04:25;;;;;;;0.82;0.80;;;;;;;16.99;39.66;100098.78;5123446;28;20027;-58
2022/03/31 05:06:50;;;;;;;1.27;0.80;;;;;;;16.98;39.67;100089.88;5129817;27;20023;-57
2022/03/31 05:09:16;;;;;;;0.80;0.80;;;;;;;16.99;39.54;100090.72;5144966;27;20049;-57
2022/03/31 05:11:41;;;;;;;0.70;0.70;;;;;;;17.02;39.63;100089.53;5143640;27;20403;-55
2022/03/31 05:14:06;;;;;;;0.90;0.80;;;;;;;17.02;39.69;100090.38;5140740;27;20032;-57
2022/03/31 05:16:31;;;;;;;0.80;0.80;;;;;;;17.03;39.90;100092.03;5123638;28;20030;-58
2022/03/31 05:18:56;;;;;;;1.13;0.70;;;;;;;17.06;39.87;100093.53;5123258;28;20039;-58
2022/03/31 05:21:22;;;;;;;0.70;0.70;;;;;;;17.05;39.76;100084.66;5123417;28;20035;-58
2022/03/31 05:23:48;;;;;;;0.75;0.75;;;;;;;17.06;39.82;100080.94;5124347;28;20043;-57
2022/03/31 05:26:14;;;;;;;1.00;0.70;;;;;;;17.07;40.08;100082.63;5122998;28;20567;-58
2022/03/31 05:28:39;;;;;;;0.73;0.73;;;;;;;17.11;40.20;100075.06;5123910;28;20030;-57
2022/03/31 05:31:04;;;;;;;0.70;0.70;;;;;;;17.12;39.98;100076.72;5123332;28;20445;-57
2022/03/31 05:33:30;;;;;;;0.60;0.60;;;;;;;17.15;39.97;100079.06;5122725;28;20024;-57
2022/03/31 05:35:58;;;;;;;0.68;0.68;;;;;;;17.16;40.01;100065.47;5123412;28;20023;-58
2022/03/31 05:38:23;;;;;;;0.60;0.60;;;;;;;17.18;40.02;100063.44;5123119;28;20044;-58
2022/03/31 05:40:48;;;;;;;0.60;0.60;;;;;;;17.20;40.14;100071.28;5123505;28;20094;-57
2022/03/31 05:43:14;;;;;;;0.85;0.85;;;;;;;17.21;40.01;100062.25;5123531;28;20036;-57
2022/03/31 05:45:39;;;;;;;0.80;0.80;;;;;;;17.23;39.93;100061.03;5120198;28;20032;-56
2022/03/31 05:48:04;;;;;;;0.63;0.63;;;;;;;17.26;39.98;100062.53;5123319;28;20034;-58
2022/03/31 05:50:29;;;;;;;0.70;0.70;;;;;;;17.27;39.96;100053.47;5122440;28;20668;-57
2022/03/31 05:52:55;;;;;;;0.70;0.70;;;;;;;17.29;39.75;100047.91;5123025;28;20119;-60
2022/03/31 05:55:20;;;;;;;0.65;0.65;;;;;;;17.30;40.22;100057.66;5127708;28;20027;-58
2022/03/31 05:57:45;;;;;;;0.70;0.70;;;;;;;17.32;40.03;100063.66;5127594;27;20028;-57
2022/03/31 06:00:14;;;;;;;0.70;0.70;;;;;;;17.34;40.02;100073.22;5128034;28;20024;-58
2022/03/31 06:02:40;;;;;;;0.70;0.70;;;;;;;17.35;40.04;100074.06;5128108;28;20032;-57
2022/03/31 06:05:05;;;;;;;0.75;0.65;;;;;;;17.37;39.93;100075.53;5127058;28;20039;-58
2022/03/31 06:07:31;;;;;;;0.60;0.60;;;;;;;17.39;40.12;100070.84;5128017;28;20019;-58
2022/03/31 06:09:56;;;;;;;0.80;0.80;;;;;;;17.41;40.20;100062.59;5126911;28;20040;-58
2022/03/31 06:12:21;;;;;;;0.60;0.60;;;;;;;17.42;40.08;100058.91;5124475;28;20031;-57
2022/03/31 06:14:47;;;;;;;0.50;0.50;;;;;;;17.44;40.01;100062.25;5127028;28;20051;-58
2022/03/31 06:17:12;;;;;;;0.70;0.70;;;;;;;17.41;40.02;100057.22;5127217;28;20035;-58
2022/03/31 06:19:38;;;;;;;0.80;0.80;;;;;;;17.47;40.06;100061.88;5126659;28;20020;-58
2022/03/31 06:22:03;;;;;;;0.70;0.70;;;;;;;17.49;39.90;100060.69;5126993;28;20023;-57
2022/03/31 06:24:28;;;;;;;0.70;0.70;;;;;;;17.50;40.00;100058.84;5127216;28;20019;-58
2022/03/31 06:26:56;;;;;;;0.80;0.80;;;;;;;17.51;39.99;100073.94;5127150;28;20059;-56
2022/03/31 06:29:21;;;;;;;0.85;0.70;;;;;;;17.53;39.85;100065.69;5127192;28;20026;-56
2022/03/31 06:31:46;;;;;;;0.60;0.60;;;;;;;17.55;39.76;100066.38;5124327;28;20016;-56
2022/03/31 06:34:12;;;;;;;1.65;0.57;;;;;;;17.57;39.70;100077.75;5126332;27;20026;-56
2022/03/31 06:36:37;;;;;;;0.82;0.70;;;;;;;17.57;39.89;100073.22;5123768;28;20031;-55
2022/03/31 06:39:03;;;;;;;0.60;0.60;;;;;;;17.59;39.82;100081.13;5126136;28;20044;-56
2022/03/31 06:41:29;;;;;;;0.60;0.60;;;;;;;17.60;39.72;100089.00;5127040;27;20047;-56
2022/03/31 06:43:54;;;;;;;0.60;0.60;;;;;;;17.60;39.76;100083.63;5126228;27;20084;-56
2022/03/31 06:46:19;;;;;;;0.57;0.57;;;;;;;17.61;39.84;100084.44;5126895;28;20023;-55
2022/03/31 06:48:48;;;;;;;1.52;0.68;;;;;;;17.60;39.78;100089.00;5122816;28;20368;-56
2022/03/31 06:51:16;;;;;;;0.60;0.60;;;;;;;17.63;39.72;100085.13;5124259;28;20020;-54
2022/03/31 06:53:42;;;;;;;0.50;0.50;;;;;;;17.65;39.62;100091.97;5126821;28;20018;-55
2022/03/31 06:56:10;;;;;;;0.68;0.68;;;;;;;17.66;39.54;100092.81;5118216;28;20035;-56
2022/03/31 06:58:36;;;;;;;0.60;0.60;;;;;;;17.62;39.71;100078.88;5126314;28;20057;-56
2022/03/31 07:01:03;;;;;;;0.60;0.60;;;;;;;17.67;39.62;100089.09;5125433;28;20352;-56
2022/03/31 07:03:28;;;;;;;0.65;0.65;;;;;;;17.67;39.35;100087.28;5126298;28;20083;-56
2022/03/31 07:05:56;;;;;;;0.50;0.50;;;;;;;17.66;39.44;100087.44;5125732;28;20039;-56
2022/03/31 07:08:22;;;;;;;0.60;0.60;;;;;;;17.68;39.39;100086.25;5126733;28;20037;-56
2022/03/31 07:10:48;;;;;;;1.02;0.63;;;;;;;17.70;39.15;100088.75;5126629;28;20120;-54
2022/03/31 07:13:13;;;;;;;0.70;0.70;;;;;;;17.70;39.54;100086.06;5126167;28;20027;-55
2022/03/31 07:15:38;;;;;;;0.60;0.60;;;;;;;17.72;39.37;100084.03;5126483;28;20027;-55
2022/03/31 07:18:05;;;;;;;0.93;0.77;;;;;;;17.71;39.28;100083.22;5126100;28;20027;-56
2022/03/31 07:20:31;;;;;;;3.13;1.85;;;;;;;17.74;39.43;100076.66;5125713;28;20019;-55
2022/03/31 07:22:56;;;;;;;5.93;3.20;;;;;;;17.76;39.32;100084.56;5126620;28;20080;-55
2022/03/31 07:25:22;;;;;;;7.78;3.75;;;;;;;17.75;39.21;100083.69;5125187;28;20028;-54
2022/03/31 07:27:48;;;;;;;11.90;6.25;;;;;;;17.77;39.20;100076.28;5126553;28;20028;-55
2022/03/31 07:30:15;;;;;;;16.88;8.32;;;;;;;17.80;39.18;100077.75;5126264;28;20063;-55
2022/03/31 07:32:51;;;;;;;20.90;10.00;;;;;;;17.81;39.20;100077.59;5126430;28;20032;-56
2022/03/31 07:35:18;;;;;;;27.58;11.93;;;;;;;17.78;39.17;100067.19;5124922;28;20091;-54
2022/03/31 07:37:43;;;;;;;30.60;14.50;;;;;;;17.83;39.09;100077.41;5125924;28;20080;-53
2022/03/31 07:40:09;;;;;;;32.75;14.73;;;;;;;17.84;39.15;100074.56;5116903;28;20031;-58
2022/03/31 07:42:34;;;;;;;33.58;16.00;;;;;;;17.85;39.36;100065.47;5113134;28;20095;-57
2022/03/31 07:44:59;;;;;;;30.15;16.45;;;;;;;17.84;39.35;100069.19;5114972;28;20027;-58
2022/03/31 07:47:25;;;;;;;38.40;17.23;;;;;;;17.87;39.46;100057.19;5115987;28;20036;-57
2022/03/31 07:49:50;;;;;;;39.33;16.25;;;;;;;17.90;39.42;100056.84;5116275;28;20043;-57
2022/03/31 07:52:16;;;;;;;33.05;15.40;;;;;;;17.90;39.27;100046.91;5115783;28;20075;-56
2022/03/31 07:54:42;;;;;;;35.20;16.88;;;;;;;17.92;39.45;100052.94;5118426;28;20028;-57
2022/03/31 07:57:08;;;;;;;35.03;16.95;;;;;;;17.93;39.38;100049.25;5115895;28;20031;-56
2022/03/31 07:59:33;;;;;;;37.50;16.33;;;;;;;17.95;39.49;100049.06;5100499;28;20110;-58
2022/03/31 08:02:00;;;;;;;33.90;16.98;;;;;;;17.95;39.52;100044.50;5114818;28;20036;-51
2022/03/31 08:04:27;;;;;;;34.65;17.45;;;;;;;17.96;39.54;100046.19;5115312;28;20026;-55
2022/03/31 08:06:52;;;;;;;41.58;17.83;;;;;;;17.99;39.52;100048.50;5122813;28;20087;-54
2022/03/31 08:09:20;;;;;;;32.40;16.35;;;;;;;18.02;39.50;100052.69;5115803;28;20081;-55
2022/03/31 08:11:46;;;;;;;32.00;15.57;;;;;;;18.03;39.45;100048.16;5114711;28;20432;-53
2022/03/31 08:14:12;;;;;;;35.88;15.98;;;;;;;18.04;39.39;100047.13;5115546;28;20567;-51
2022/03/31 08:16:37;;;;;;;34.20;16.05;;;;;;;18.05;39.15;100040.72;5115644;28;20027;-51
2022/03/31 08:19:02;;;;;;;32.90;16.73;;;;;;;18.07;39.40;100055.66;5117755;28;20051;-54
2022/03/31 08:21:27;;;;;;;40.15;17.20;;;;;;;18.08;39.28;100048.44;5121494;28;20034;-53
2022/03/31 08:23:53;;;;;;;33.10;14.73;;;;;;;18.08;39.69;100049.25;5113737;28;20035;-53
2022/03/31 08:26:18;;;;;;;33.97;14.80;;;;;;;18.10;39.29;100051.78;5117596;28;20037;-55
2022/03/31 08:28:44;;;;;;;33.35;14.23;;;;;;;18.11;39.15;100046.22;5118143;27;20036;-54
2022/03/31 08:31:09;;;;;;;28.45;14.02;;;;;;;18.12;39.14;100060.50;5121165;28;20031;-53
2022/03/31 08:33:34;;;;;;;27.50;13.98;;;;;;;18.13;39.09;100052.22;5117053;28;20043;-54
2022/03/31 08:36:00;;;;;;;30.95;15.20;;;;;;;18.13;39.07;100049.53;5112809;28;20032;-53
2022/03/31 08:38:25;;;;;;;25.75;13.55;;;;;;;18.16;39.25;100045.66;5114241;28;20058;-55
2022/03/31 08:40:51;;;;;;;26.65;12.48;;;;;;;18.17;39.09;100047.31;5118116;28;20047;-57
2022/03/31 08:43:16;;;;;;;23.40;11.45;;;;;;;18.18;39.23;100049.84;5118179;28;20031;-59
2022/03/31 08:45:42;;;;;;;27.70;13.25;;;;;;;18.19;39.23;100050.69;5106870;28;20024;-57
2022/03/31 08:48:08;;;;;;;24.45;12.00;;;;;;;18.21;39.07;100051.31;5115585;28;20043;-58
2022/03/31 08:50:35;;;;;;;20.55;10.38;;;;;;;18.22;39.26;100048.47;5117007;28;20034;-59
2022/03/31 08:53:02;;;;;;;22.05;10.95;;;;;;;18.23;39.35;100055.50;5105705;28;20027;-58
2022/03/31 08:55:27;;;;;;;21.65;10.73;;;;;;;18.22;39.21;100048.47;5104182;28;20054;-58
2022/03/31 08:57:54;;;;;;;22.88;10.20;;;;;;;18.18;39.31;100039.09;5102525;28;20028;-59
2022/03/31 09:00:21;;;;;;;22.30;10.98;;;;;;;18.28;39.36;100052.25;5116466;28;20032;-59
2022/03/31 09:02:57;;;;;;;23.63;10.15;;;;;;;18.29;39.42;100045.84;5103882;28;20050;-59
2022/03/31 09:05:22;;;;;;;22.15;10.52;;;;;;;18.30;39.46;100047.50;5102760;28;20042;-58
2022/03/31 09:08:07;;;;;;;22.13;9.13;;;;;;;18.32;39.23;100044.66;5117323;28;20035;-59
2022/03/31 09:10:35;;;;;;;21.35;9.15;;;;;;;18.32;39.26;100053.56;5124661;28;20028;-59
2022/03/31 09:13:03;;;;;;;18.17;8.68;;;;;;;18.33;39.26;100049.84;5124295;28;20034;-57
2022/03/31 09:15:29;;;;;;;18.55;9.25;;;;;;;18.34;39.36;100045.28;5122743;28;20078;-59
2022/03/31 09:17:58;;;;;;;18.50;8.88;;;;;;;18.32;39.18;100045.47;5123636;28;20019;-59
2022/03/31 09:20:35;;;;;;;19.50;8.35;;;;;;;18.36;39.13;100046.78;5123322;28;20105;-59
2022/03/31 09:23:01;;;;;;;15.48;8.75;;;;;;;18.35;39.03;100039.72;5105039;28;20027;-58
2022/03/31 09:25:27;;;;;;;15.38;7.75;;;;;;;18.37;39.22;100039.53;5103748;28;20020;-58
2022/03/31 09:27:53;;;;;;;17.25;7.82;;;;;;;18.38;39.16;100042.03;5103307;28;20024;-57
2022/03/31 09:30:19;;;;;;;15.02;7.28;;;;;;;18.40;39.11;100050.78;5102274;28;20028;-58
2022/03/31 09:32:48;;;;;;;13.82;6.97;;;;;;;18.41;38.96;100047.06;5103658;28;20028;-57
2022/03/31 09:35:18;;;;;;;14.07;7.38;;;;;;;18.42;39.06;100050.56;5102639;28;20028;-57
2022/03/31 09:37:43;;;;;;;15.98;7.82;;;;;;;18.43;38.93;100052.25;5115449;28;20046;-58
2022/03/31 09:40:10;;;;;;;12.13;6.82;;;;;;;18.40;39.00;100049.94;5123980;28;20043;-58
2022/03/31 09:42:35;;;;;;;12.60;7.03;;;;;;;18.44;38.86;100054.75;5124058;28;20074;-57
2022/03/31 09:45:00;;;;;;;14.85;7.25;;;;;;;18.45;38.79;100056.44;5123437;28;20070;-58
2022/03/31 09:47:26;;;;;;;11.95;6.07;;;;;;;18.47;39.01;100058.91;5123656;28;20023;-60
2022/03/31 09:49:55;;;;;;;12.85;6.15;;;;;;;18.49;38.85;100062.28;5107387;28;20035;-59
2022/03/31 09:52:21;;;;;;;14.88;6.40;;;;;;;18.49;39.02;100056.91;5116428;28;20034;-59
2022/03/31 09:54:48;;;;;;;13.68;6.85;;;;;;;18.50;38.89;100055.88;5105181;28;20027;-59
2022/03/31 09:57:14;;;;;;;13.07;6.40;;;;;;;18.49;38.76;100055.03;5112581;28;20513;-59
2022/03/31 09:59:40;;;;;;;11.18;5.40;;;;;;;18.53;38.76;100060.06;5113849;28;20031;-58
2022/03/31 10:02:06;;;;;;;11.90;6.38;;;;;;;18.54;38.90;100059.84;5111237;28;20047;-59
2022/03/31 10:04:33;;;;;;;11.57;5.90;;;;;;;18.56;39.01;100059.66;5114792;28;20433;-57
2022/03/31 10:06:58;;;;;;;9.55;4.93;;;;;;;18.58;38.42;100063.00;5109911;28;20056;-55
2022/03/31 10:09:24;;;;;;;11.68;5.13;;;;;;;18.60;38.90;100063.66;5112426;28;20085;-57
2022/03/31 10:12:05;;;;;;;10.52;5.80;;;;;;;18.59;38.67;100059.28;5116973;28;20098;-56
2022/03/31 10:14:43;;;;;;;11.38;5.47;;;;;;;18.63;38.57;100057.91;5113906;28;20020;-57
2022/03/31 10:17:09;;;;;;;12.63;4.85;;;;;;;18.62;38.63;100051.69;5120206;28;20080;-58
2022/03/31 10:19:36;;;;;;;7.90;4.00;;;;;;;18.63;38.57;100053.34;5116397;28;20035;-58
2022/03/31 10:22:08;;;;;;;9.25;4.35;;;;;;;18.66;38.47;100046.75;5116868;28;20214;-58
2022/03/31 10:24:44;;;;;;;7.93;4.43;;;;;;;18.66;38.34;100052.97;5112789;28;20034;-58
2022/03/31 10:27:23;;;;;;;9.30;4.03;;;;;;;18.65;38.38;100053.19;5120942;28;20532;-58
2022/03/31 10:29:49;;;;;;;8.02;3.70;;;;;;;18.67;38.52;100056.50;5092168;28;20024;-56
2022/03/31 10:32:20;;;;;;;7.07;3.95;;;;;;;18.68;38.28;100053.59;5119167;28;20094;-58
2022/03/31 10:34:48;;;;;;;9.00;4.35;;;;;;;18.68;38.19;100056.31;5110131;28;20067;-57
2022/03/31 10:37:14;;;;;;;7.82;4.03;;;;;;;18.69;38.35;100052.63;5119144;28;20520;-54
2022/03/31 10:39:50;;;;;;;7.00;3.80;;;;;;;18.76;38.23;100062.66;5109617;28;20036;-58
2022/03/31 10:42:15;;;;;;;6.82;3.65;;;;;;;18.75;38.65;100056.44;5118816;28;20047;-58
2022/03/31 10:44:40;;;;;;;9.23;3.70;;;;;;;18.76;38.28;100058.09;5116297;28;20054;-58
2022/03/31 10:47:08;;;;;;;7.47;3.55;;;;;;;18.79;38.39;100063.09;5119745;28;20023;-58
2022/03/31 10:49:34;;;;;;;6.70;3.30;;;;;;;18.82;38.58;100056.50;5120495;28;20023;-57
2022/03/31 10:52:16;;;;;;;6.35;3.33;;;;;;;18.85;38.57;100056.13;5116433;28;20046;-57
2022/03/31 10:54:42;;;;;;;4.70;2.60;;;;;;;18.84;38.57;100054.47;5120578;28;20112;-57
2022/03/31 10:57:11;;;;;;;6.22;3.30;;;;;;;18.84;38.49;100054.47;5124015;28;20028;-58
2022/03/31 10:59:37;;;;;;;7.63;3.35;;;;;;;18.88;38.27;100058.44;5120217;28;20028;-59
2022/03/31 11:02:14;;;;;;;4.63;2.72;;;;;;;18.90;38.45;100054.56;5119572;28;20045;-58
2022/03/31 11:04:51;;;;;;;6.15;2.70;;;;;;;18.91;38.42;100041.91;5119142;28;20087;-58
2022/03/31 11:07:22;;;;;;;5.90;2.92;;;;;;;18.93;38.13;100050.63;5113426;28;20108;-58
2022/03/31 11:09:48;;;;;;;5.65;2.80;;;;;;;18.93;37.98;100050.63;5112918;28;20031;-59
2022/03/31 11:12:22;;;;;;;4.57;2.55;;;;;;;18.94;38.27;100046.91;5122013;28;20043;-60
2022/03/31 11:14:58;;;;;;;4.50;2.63;;;;;;;18.96;38.33;100039.47;5116819;28;20063;-61
2022/03/31 11:17:23;;;;;;;4.93;2.63;;;;;;;18.97;38.16;100047.38;5116789;28;20052;-60
2022/03/31 11:19:49;;;;;;;5.47;2.70;;;;;;;18.98;38.18;100037.41;5111414;28;20031;-57
2022/03/31 11:22:23;;;;;;;5.30;2.53;;;;;;;19.02;38.26;100045.97;5109311;28;20032;-59
2022/03/31 11:24:50;;;;;;;3.47;2.10;;;;;;;19.03;38.03;100047.63;5114824;28;20024;-59